Time;durP1;ratioP1;P1;durP2;ratioP2;P2;SDS_P1;SDS_P2;PMS_P1;PMS_P2;Temp;Humidity;BMP_temperature;BMP_pressure;BME280_temperature;BME280_humidity;BME280_pressure;Samples;Min_cycle;Max_cycle;Signal;HPM_P1;HPM_P2
2021/04/07 00:00:52;;;;;;;3.90;1.13;;;2.90;75.80;;;;;;5034815;28;20033;-70
2021/04/07 00:03:18;;;;;;;6.68;1.30;;;2.80;75.90;;;;;;5034492;28;20116;-70
2021/04/07 00:05:44;;;;;;;3.80;1.08;;;2.80;76.10;;;;;;5034471;28;20030;-70
2021/04/07 00:08:10;;;;;;;5.05;1.50;;;2.70;76.10;;;;;;5030936;28;20042;-70
2021/04/07 00:10:42;;;;;;;8.52;1.50;;;2.70;76.30;;;;;;5034363;28;20060;-70
2021/04/07 00:13:09;;;;;;;6.18;1.38;;;2.60;76.50;;;;;;5034237;28;20025;-70
2021/04/07 00:15:35;;;;;;;9.88;1.30;;;2.60;76.70;;;;;;5033104;28;20036;-70
2021/04/07 00:18:02;;;;;;;6.18;1.38;;;2.60;76.90;;;;;;5034134;28;20493;-69
2021/04/07 00:20:29;;;;;;;4.32;1.00;;;2.50;76.90;;;;;;5034121;28;20391;-70
2021/04/07 00:22:55;;;;;;;5.43;1.35;;;2.50;77.00;;;;;;5034161;28;20120;-70
2021/04/07 00:25:23;;;;;;;6.95;1.17;;;2.50;77.10;;;;;;5032797;28;20030;-69
2021/04/07 00:27:56;;;;;;;5.50;1.05;;;2.50;77.20;;;;;;5032915;28;20120;-70
2021/04/07 00:30:32;;;;;;;8.80;1.27;;;2.40;77.30;;;;;;5032787;28;20030;-70
2021/04/07 00:32:58;;;;;;;5.60;1.25;;;2.40;77.50;;;;;;5033967;28;20025;-70
2021/04/07 00:35:24;;;;;;;7.75;1.55;;;2.40;77.60;;;;;;5033991;28;20037;-70
2021/04/07 00:37:50;;;;;;;7.97;1.38;;;2.40;77.70;;;;;;5034073;28;20040;-69
2021/04/07 00:40:17;;;;;;;5.35;1.27;;;2.40;77.80;;;;;;5033995;28;20022;-69
2021/04/07 00:42:44;;;;;;;7.00;1.38;;;2.30;77.70;;;;;;5032452;28;20431;-70
2021/04/07 00:45:11;;;;;;;5.63;1.17;;;2.40;77.90;;;;;;5033647;28;20033;-70
2021/04/07 00:47:37;;;;;;;5.80;1.10;;;2.30;77.90;;;;;;5033842;28;20380;-70
2021/04/07 00:50:05;;;;;;;3.25;1.10;;;2.30;78.00;;;;;;5032383;28;20160;-70
2021/04/07 00:52:30;;;;;;;3.92;0.95;;;2.30;78.00;;;;;;5033687;28;20041;-70
2021/04/07 00:54:56;;;;;;;4.88;1.10;;;2.30;78.00;;;;;;5033475;28;20041;-70
2021/04/07 00:57:23;;;;;;;2.78;0.80;;;2.30;78.00;;;;;;5033761;28;20053;-70
2021/04/07 00:59:49;;;;;;;9.02;0.98;;;2.40;78.00;;;;;;5032345;28;20036;-70
2021/04/07 01:02:15;;;;;;;4.38;1.27;;;2.40;77.90;;;;;;5033465;28;20059;-69
2021/04/07 01:04:43;;;;;;;4.18;1.05;;;2.40;77.90;;;;;;5032235;28;20079;-69
2021/04/07 01:07:10;;;;;;;7.95;1.20;;;2.50;77.80;;;;;;5033327;28;20109;-70
2021/04/07 01:09:36;;;;;;;4.43;0.73;;;2.60;77.80;;;;;;5033262;28;20568;-70
2021/04/07 01:12:02;;;;;;;2.78;0.90;;;2.60;77.60;;;;;;5031878;28;20026;-70
2021/04/07 01:14:28;;;;;;;7.10;1.17;;;2.70;77.50;;;;;;5033365;28;20057;-70
2021/04/07 01:16:54;;;;;;;6.30;1.00;;;2.70;77.40;;;;;;5031982;28;20064;-70
2021/04/07 01:19:24;;;;;;;4.50;0.93;;;2.70;77.40;;;;;;5031753;28;20053;-70
2021/04/07 01:21:50;;;;;;;6.32;1.60;;;2.70;77.40;;;;;;5032905;28;20029;-70
2021/04/07 01:24:16;;;;;;;6.38;1.15;;;2.70;77.50;;;;;;5031574;28;20496;-70
2021/04/07 01:26:42;;;;;;;6.53;1.45;;;2.70;77.60;;;;;;5033091;28;20030;-70
2021/04/07 01:29:08;;;;;;;5.40;1.10;;;2.70;77.70;;;;;;5033268;28;20025;-69
2021/04/07 01:31:45;;;;;;;3.03;1.38;;;2.70;77.80;;;;;;5031699;28;20049;-70
2021/04/07 01:34:27;;;;;;;8.43;1.95;;;2.60;77.90;;;;;;5031671;28;20492;-70
2021/04/07 01:36:53;;;;;;;6.05;1.35;;;2.60;78.20;;;;;;5033300;28;20056;-70
2021/04/07 01:39:21;;;;;;;4.53;1.10;;;2.60;78.30;;;;;;5031419;28;20029;-70
2021/04/07 01:41:48;;;;;;;7.22;1.40;;;2.60;78.40;;;;;;5032781;28;20022;-70
2021/04/07 01:44:16;;;;;;;5.78;1.40;;;2.60;78.90;;;;;;5032717;28;20479;-70
2021/04/07 01:46:43;;;;;;;5.53;1.40;;;2.60;78.80;;;;;;5031307;28;20162;-70
2021/04/07 01:49:10;;;;;;;5.05;1.25;;;2.70;78.90;;;;;;5031758;28;20064;-69
2021/04/07 01:51:36;;;;;;;5.03;1.42;;;2.70;79.10;;;;;;5032516;28;20033;-70
2021/04/07 01:54:04;;;;;;;4.32;1.20;;;2.60;79.40;;;;;;5031571;28;20036;-69
2021/04/07 01:56:30;;;;;;;3.80;0.98;;;2.60;79.70;;;;;;5031197;28;20129;-70
2021/04/07 01:59:01;;;;;;;4.53;1.20;;;2.60;79.90;;;;;;5032503;28;20419;-70
2021/04/07 02:01:27;;;;;;;2.70;0.85;;;2.60;79.90;;;;;;5032396;28;20099;-70
2021/04/07 02:03:53;;;;;;;7.15;1.42;;;2.60;80.00;;;;;;5031093;28;20036;-70
2021/04/07 02:06:19;;;;;;;4.85;1.35;;;2.60;80.20;;;;;;5031046;28;20087;-69
2021/04/07 02:08:45;;;;;;;6.13;1.58;;;2.60;80.30;;;;;;5032350;28;20045;-70
2021/04/07 02:11:11;;;;;;;4.93;1.20;;;2.60;80.50;;;;;;5031124;28;20030;-70
2021/04/07 02:13:36;;;;;;;5.03;1.77;;;2.60;80.60;;;;;;5031185;28;20579;-70
2021/04/07 02:16:15;;;;;;;3.30;1.77;;;2.60;80.80;;;;;;5032531;28;20112;-70
2021/04/07 02:18:41;;;;;;;5.60;2.40;;;2.60;80.80;;;;;;5032491;28;20112;-69
2021/04/07 02:21:08;;;;;;;5.45;1.65;;;2.70;81.00;;;;;;5031053;28;20077;-70
2021/04/07 02:23:35;;;;;;;3.85;1.70;;;2.60;80.90;;;;;;5031228;28;20033;-70
2021/04/07 02:26:02;;;;;;;5.47;1.90;;;2.60;81.00;;;;;;5030816;28;20030;-70
2021/04/07 02:28:27;;;;;;;3.45;1.65;;;2.70;81.00;;;;;;5032118;28;20029;-69
2021/04/07 02:30:53;;;;;;;6.32;1.95;;;2.70;81.20;;;;;;5032119;28;20036;-70
2021/04/07 02:33:19;;;;;;;3.63;1.50;;;2.70;81.20;;;;;;5030842;28;20108;-70
2021/04/07 02:35:45;;;;;;;6.50;1.98;;;2.70;81.30;;;;;;5030615;28;20033;-70
2021/04/07 02:38:11;;;;;;;3.58;1.38;;;2.70;81.40;;;;;;5033660;28;20038;-69
2021/04/07 02:40:37;;;;;;;4.47;1.60;;;2.80;81.40;;;;;;5034616;28;20036;-69
2021/04/07 02:43:03;;;;;;;5.97;1.63;;;2.80;81.30;;;;;;5035783;28;20034;-70
2021/04/07 02:45:29;;;;;;;3.60;1.35;;;2.80;81.20;;;;;;5034460;28;20029;-70
2021/04/07 02:47:55;;;;;;;4.97;1.55;;;2.90;81.30;;;;;;5034613;28;20032;-70
2021/04/07 02:50:21;;;;;;;5.38;1.55;;;2.90;81.30;;;;;;5034270;28;20021;-69
2021/04/07 02:52:47;;;;;;;3.80;1.50;;;2.90;81.40;;;;;;5034270;28;20353;-70
2021/04/07 02:55:12;;;;;;;3.53;1.55;;;2.90;81.50;;;;;;5035596;28;20026;-70
2021/04/07 02:57:38;;;;;;;7.15;1.70;;;2.90;81.50;;;;;;5035519;28;20029;-70
2021/04/07 03:00:05;;;;;;;3.33;1.80;;;2.90;81.70;;;;;;5035496;28;20025;-69
2021/04/07 03:02:31;;;;;;;2.88;1.33;;;2.90;81.90;;;;;;5035224;28;20061;-69
2021/04/07 03:04:57;;;;;;;2.38;1.27;;;2.90;81.90;;;;;;5035397;28;20385;-70
2021/04/07 03:07:23;;;;;;;3.17;1.40;;;2.80;82.00;;;;;;5035395;28;20075;-69
2021/04/07 03:09:49;;;;;;;3.38;1.30;;;2.80;82.10;;;;;;5035381;28;20096;-69
2021/04/07 03:12:15;;;;;;;4.28;1.15;;;2.80;82.40;;;;;;5035272;28;20075;-70
2021/04/07 03:14:40;;;;;;;2.67;1.00;;;2.80;82.40;;;;;;5033974;28;20029;-69
2021/04/07 03:17:06;;;;;;;3.22;1.17;;;2.80;82.60;;;;;;5033887;28;20037;-69
2021/04/07 03:19:32;;;;;;;3.72;0.95;;;2.70;82.60;;;;;;5035404;28;20112;-69
2021/04/07 03:21:58;;;;;;;5.18;1.23;;;2.70;82.70;;;;;;5033789;28;20028;-69
2021/04/07 03:24:24;;;;;;;5.78;1.42;;;2.80;82.70;;;;;;5034104;28;20512;-69
2021/04/07 03:26:50;;;;;;;2.15;1.20;;;2.70;82.70;;;;;;5033859;28;20064;-68
2021/04/07 03:29:16;;;;;;;6.25;1.60;;;2.80;82.80;;;;;;5035076;28;20064;-69
2021/04/07 03:31:41;;;;;;;3.42;1.40;;;2.80;82.90;;;;;;5033665;28;20036;-70
2021/04/07 03:34:07;;;;;;;3.90;1.40;;;2.80;82.90;;;;;;5033657;28;20426;-69
2021/04/07 03:36:33;;;;;;;2.95;1.58;;;2.80;83.00;;;;;;5035228;28;20037;-69
2021/04/07 03:38:58;;;;;;;3.85;1.42;;;2.80;83.00;;;;;;5034825;28;20025;-69
2021/04/07 03:41:24;;;;;;;2.83;1.50;;;2.80;83.20;;;;;;5035204;28;20037;-69
2021/04/07 03:43:49;;;;;;;1.95;1.30;;;2.80;83.30;;;;;;5033481;28;20041;-69
2021/04/07 03:46:17;;;;;;;4.88;1.50;;;2.80;83.30;;;;;;5033098;28;20022;-69
2021/04/07 03:48:43;;;;;;;1.90;1.23;;;2.80;83.30;;;;;;5034875;28;20021;-69
2021/04/07 03:51:08;;;;;;;6.32;1.40;;;2.80;83.30;;;;;;5034468;28;20029;-69
2021/04/07 03:53:34;;;;;;;3.92;1.23;;;2.90;83.40;;;;;;5034484;28;20048;-69
2021/04/07 03:56:00;;;;;;;4.38;1.70;;;2.90;83.30;;;;;;5034680;28;20104;-69
2021/04/07 03:58:26;;;;;;;4.47;1.50;;;2.90;83.50;;;;;;5033174;28;20023;-69
2021/04/07 04:00:52;;;;;;;2.90;1.70;;;2.80;83.60;;;;;;5034450;28;20061;-69
2021/04/07 04:03:19;;;;;;;3.83;1.38;;;2.80;83.80;;;;;;5034362;28;20489;-69
2021/04/07 04:05:44;;;;;;;7.60;1.67;;;2.80;83.90;;;;;;5032852;28;20022;-69
2021/04/07 04:08:10;;;;;;;2.65;1.38;;;2.80;84.00;;;;;;5034342;28;20480;-69
2021/04/07 04:10:36;;;;;;;4.35;1.42;;;2.80;84.00;;;;;;5033360;28;20515;-69
2021/04/07 04:13:03;;;;;;;4.07;1.30;;;2.80;84.10;;;;;;5034147;28;20025;-69
2021/04/07 04:15:29;;;;;;;4.90;1.42;;;2.80;84.10;;;;;;5032920;28;20047;-69
2021/04/07 04:17:54;;;;;;;3.53;1.30;;;2.80;84.10;;;;;;5034029;28;20108;-69
2021/04/07 04:20:20;;;;;;;5.50;1.30;;;2.80;84.30;;;;;;5034169;28;20056;-69
2021/04/07 04:22:46;;;;;;;2.92;1.17;;;2.70;84.30;;;;;;5033138;28;20060;-69
2021/04/07 04:25:15;;;;;;;4.55;1.30;;;2.70;84.40;;;;;;5032720;28;20039;-69
2021/04/07 04:27:41;;;;;;;4.22;1.75;;;2.70;84.60;;;;;;5032647;28;20050;-69
2021/04/07 04:30:09;;;;;;;2.90;1.00;;;2.70;84.70;;;;;;5033951;28;20040;-69
2021/04/07 04:32:35;;;;;;;3.10;1.52;;;2.70;84.80;;;;;;5034205;28;20189;-69
2021/04/07 04:35:01;;;;;;;3.33;1.38;;;2.70;85.00;;;;;;5034275;28;20100;-69
2021/04/07 04:37:27;;;;;;;2.42;1.63;;;2.60;85.10;;;;;;5032466;28;20059;-70
2021/04/07 04:39:53;;;;;;;3.08;1.40;;;2.60;85.30;;;;;;5032382;28;20022;-69
2021/04/07 04:42:19;;;;;;;4.18;1.42;;;2.50;85.40;;;;;;5033799;28;20028;-69
2021/04/07 04:44:44;;;;;;;3.10;1.38;;;2.50;85.50;;;;;;5032355;28;20021;-69
2021/04/07 04:47:10;;;;;;;3.80;1.40;;;2.50;85.40;;;;;;5033583;28;20037;-69
2021/04/07 04:49:35;;;;;;;3.72;1.40;;;2.60;85.50;;;;;;5033907;28;20083;-70
2021/04/07 04:52:01;;;;;;;3.35;1.08;;;2.60;85.70;;;;;;5033530;28;20481;-69
2021/04/07 04:54:26;;;;;;;6.82;1.60;;;2.60;85.60;;;;;;5032293;28;20025;-69
2021/04/07 04:56:52;;;;;;;3.13;1.00;;;2.60;85.80;;;;;;5032100;28;20464;-69
2021/04/07 04:59:18;;;;;;;3.25;1.40;;;2.60;85.80;;;;;;5033613;28;20017;-70
2021/04/07 05:01:44;;;;;;;2.67;1.20;;;2.60;85.90;;;;;;5031498;28;20058;-69
2021/04/07 05:04:09;;;;;;;2.55;1.15;;;2.60;85.90;;;;;;5033723;28;20068;-69
2021/04/07 05:06:35;;;;;;;4.90;1.30;;;2.60;86.00;;;;;;5033225;28;20083;-69
2021/04/07 05:09:03;;;;;;;3.72;1.27;;;2.50;86.00;;;;;;5032953;28;20129;-69
2021/04/07 05:11:29;;;;;;;3.00;1.20;;;2.60;86.10;;;;;;5033400;28;20018;-69
2021/04/07 05:13:54;;;;;;;2.22;1.10;;;2.60;86.20;;;;;;5031784;28;20014;-69
2021/04/07 05:16:20;;;;;;;3.13;1.40;;;2.60;86.20;;;;;;5031707;28;20029;-69
2021/04/07 05:18:46;;;;;;;2.80;1.20;;;2.50;86.30;;;;;;5033094;28;20068;-69
2021/04/07 05:21:11;;;;;;;3.70;1.23;;;2.60;86.30;;;;;;5033043;28;20025;-69
2021/04/07 05:23:37;;;;;;;4.35;1.30;;;2.50;86.30;;;;;;5031721;28;20495;-70
2021/04/07 05:26:03;;;;;;;3.17;1.20;;;2.60;86.40;;;;;;5031617;28;20048;-70
2021/04/07 05:28:29;;;;;;;2.15;1.30;;;2.60;86.40;;;;;;5031766;28;20357;-69
2021/04/07 05:31:01;;;;;;;1.50;1.30;;;2.60;86.30;;;;;;5033187;28;20026;-69
2021/04/07 05:33:32;;;;;;;2.92;1.40;;;2.60;86.40;;;;;;5031877;28;20056;-69
2021/04/07 05:36:00;;;;;;;2.20;1.45;;;2.70;86.40;;;;;;5031480;28;20103;-69
2021/04/07 05:38:26;;;;;;;1.92;1.55;;;2.70;86.30;;;;;;5031441;28;20547;-69
2021/04/07 05:40:53;;;;;;;1.85;1.00;;;2.60;86.20;;;;;;5032660;28;20025;-69
2021/04/07 05:43:20;;;;;;;2.17;0.90;;;2.70;86.30;;;;;;5031176;28;20079;-69
2021/04/07 05:45:45;;;;;;;2.35;1.30;;;2.70;86.20;;;;;;5030723;28;20120;-69
2021/04/07 05:48:11;;;;;;;2.55;1.08;;;2.70;86.20;;;;;;5032528;28;20504;-71
2021/04/07 05:50:43;;;;;;;1.40;1.20;;;2.80;86.20;;;;;;5031031;28;20018;-69
2021/04/07 05:53:09;;;;;;;1.77;1.33;;;2.80;86.30;;;;;;5031723;28;20018;-69
2021/04/07 05:55:36;;;;;;;1.60;1.50;;;2.80;86.10;;;;;;5033092;28;20025;-69
2021/04/07 05:58:07;;;;;;;1.58;1.48;;;2.90;86.00;;;;;;5030865;28;20021;-69
2021/04/07 06:00:34;;;;;;;1.25;1.10;;;3.00;85.90;;;;;;5032047;28;20087;-69
2021/04/07 06:03:01;;;;;;;1.42;1.27;;;2.90;85.70;;;;;;5032310;28;20136;-69
2021/04/07 06:05:27;;;;;;;1.35;0.93;;;3.00;85.70;;;;;;5030521;28;20022;-69
2021/04/07 06:08:00;;;;;;;0.88;0.80;;;3.00;85.60;;;;;;5031716;28;20113;-70
2021/04/07 06:10:26;;;;;;;2.30;1.67;;;3.00;85.50;;;;;;5031796;28;20026;-70
2021/04/07 06:12:53;;;;;;;3.25;2.40;;;2.90;85.50;;;;;;5031961;28;20018;-70
2021/04/07 06:15:20;;;;;;;1.55;1.45;;;2.90;85.60;;;;;;5036285;28;20326;-70
2021/04/07 06:18:04;;;;;;;1.60;1.35;;;2.90;85.80;;;;;;5036242;28;20105;-70
2021/04/07 06:20:40;;;;;;;2.88;1.70;;;2.90;85.80;;;;;;5034757;28;20032;-70
2021/04/07 06:23:07;;;;;;;4.30;2.10;;;2.90;85.70;;;;;;5036087;28;20025;-70
2021/04/07 06:25:34;;;;;;;2.22;1.70;;;3.00;85.70;;;;;;5034474;28;20022;-70
2021/04/07 06:28:03;;;;;;;5.32;3.85;;;3.10;85.70;;;;;;5034058;28;20025;-69
2021/04/07 06:33:28;;;;;;;3.53;2.05;;;3.10;85.60;;;;;;5035640;28;20401;-70
2021/04/07 06:35:58;;;;;;;4.25;1.88;;;3.20;85.50;;;;;;5034166;28;20014;-69
2021/04/07 06:38:24;;;;;;;2.80;2.05;;;3.30;85.50;;;;;;5035581;28;20026;-69
2021/04/07 06:40:51;;;;;;;2.45;1.60;;;3.20;85.50;;;;;;5035679;28;20030;-69
2021/04/07 06:43:22;;;;;;;2.17;1.90;;;3.30;85.50;;;;;;5035222;28;20080;-69
2021/04/07 06:45:48;;;;;;;2.95;2.20;;;3.50;85.40;;;;;;5035166;28;20484;-69
2021/04/07 06:48:15;;;;;;;4.53;2.05;;;3.50;85.20;;;;;;5034081;28;20064;-69
2021/04/07 06:50:43;;;;;;;4.35;1.85;;;3.50;85.10;;;;;;5034264;28;20022;-70
2021/04/07 06:53:09;;;;;;;2.22;1.50;;;3.60;85.20;;;;;;5033970;28;20052;-70
2021/04/07 06:55:37;;;;;;;3.08;1.60;;;3.60;85.30;;;;;;5033983;28;20047;-69
2021/04/07 06:58:05;;;;;;;1.65;1.45;;;3.60;85.10;;;;;;5033802;28;20079;-69
2021/04/07 07:00:31;;;;;;;5.53;1.92;;;3.70;85.20;;;;;;5033721;28;20025;-69
2021/04/07 07:03:06;;;;;;;3.40;1.50;;;3.80;85.20;;;;;;5035028;28;20421;-69
2021/04/07 07:05:34;;;;;;;2.38;1.50;;;3.90;85.00;;;;;;5035185;28;20021;-70
2021/04/07 07:08:06;;;;;;;3.05;1.63;;;4.10;85.10;;;;;;5033640;28;20022;-70
2021/04/07 07:10:42;;;;;;;2.13;1.65;;;4.10;84.90;;;;;;5035265;28;20357;-69
2021/04/07 07:13:10;;;;;;;2.83;1.40;;;4.30;85.00;;;;;;5033800;28;20051;-69
2021/04/07 07:15:37;;;;;;;2.50;1.50;;;4.40;84.80;;;;;;5035476;28;20025;-69
2021/04/07 07:18:03;;;;;;;2.80;1.40;;;4.50;84.80;;;;;;5035048;28;20033;-69
2021/04/07 07:20:34;;;;;;;2.88;1.60;;;4.60;84.70;;;;;;5034820;28;20087;-69
2021/04/07 07:23:00;;;;;;;4.20;1.40;;;4.70;84.60;;;;;;5035173;28;20365;-70
2021/04/07 07:25:27;;;;;;;3.03;1.55;;;4.70;84.70;;;;;;5033850;28;20413;-71
2021/04/07 07:27:58;;;;;;;4.75;1.70;;;4.70;84.70;;;;;;5033402;28;20020;-70
2021/04/07 07:30:34;;;;;;;2.60;1.65;;;4.80;84.90;;;;;;5034850;28;20091;-72
2021/04/07 07:33:00;;;;;;;2.80;1.77;;;4.80;84.80;;;;;;5035038;28;20021;-69
2021/04/07 07:35:26;;;;;;;4.68;1.67;;;4.80;85.10;;;;;;5034965;28;20362;-69
2021/04/07 07:38:00;;;;;;;3.55;1.50;;;4.90;85.10;;;;;;5033358;28;20116;-69
2021/04/07 07:40:26;;;;;;;4.70;1.75;;;5.00;84.90;;;;;;5034867;28;20053;-69
2021/04/07 07:42:52;;;;;;;4.00;1.90;;;5.00;85.00;;;;;;5033473;28;20105;-69
2021/04/07 07:45:32;;;;;;;7.00;2.70;;;5.10;85.00;;;;;;5033441;28;20079;-70
2021/04/07 07:48:07;;;;;;;5.55;2.63;;;5.10;85.00;;;;;;5034595;28;20021;-70
2021/04/07 07:50:36;;;;;;;6.97;2.70;;;5.10;85.00;;;;;;5034509;28;20092;-70
2021/04/07 07:53:11;;;;;;;4.68;2.13;;;5.30;85.20;;;;;;5033187;28;20361;-69
2021/04/07 07:55:40;;;;;;;23.45;3.70;;;5.40;85.10;;;;;;5033210;28;20476;-70
2021/04/07 07:58:06;;;;;;;9.57;3.28;;;5.40;85.10;;;;;;5033255;28;20025;-71
2021/04/07 08:00:33;;;;;;;7.10;2.40;;;5.40;85.10;;;;;;5034431;28;20384;-70
2021/04/07 08:03:13;;;;;;;9.77;2.20;;;5.40;85.10;;;;;;5032938;28;20025;-70
2021/04/07 08:05:40;;;;;;;7.20;1.80;;;5.50;85.10;;;;;;5034379;28;20033;-70
2021/04/07 08:08:07;;;;;;;5.28;1.27;;;5.50;85.40;;;;;;5032827;28;20046;-70
2021/04/07 08:10:33;;;;;;;8.30;2.10;;;5.50;85.60;;;;;;5033119;28;20045;-69
2021/04/07 08:13:03;;;;;;;3.97;1.38;;;5.50;86.30;;;;;;5034799;28;20096;-70
2021/04/07 08:15:30;;;;;;;5.57;1.40;;;5.50;86.00;;;;;;5034363;28;20499;-69
2021/04/07 08:17:57;;;;;;;6.63;1.70;;;5.50;86.50;;;;;;5034400;28;20030;-70
2021/04/07 08:20:24;;;;;;;7.88;1.63;;;5.50;86.90;;;;;;5032840;28;20026;-69
2021/04/07 08:22:51;;;;;;;8.10;1.60;;;5.60;86.70;;;;;;5034156;28;20087;-69
2021/04/07 08:25:18;;;;;;;8.95;1.73;;;5.60;86.70;;;;;;5033936;28;20032;-69
2021/04/07 08:27:44;;;;;;;6.93;2.10;;;5.60;86.80;;;;;;5032653;28;20045;-69
2021/04/07 08:30:10;;;;;;;8.80;2.00;;;5.60;87.10;;;;;;5032762;28;20025;-70
2021/04/07 08:32:37;;;;;;;8.02;1.80;;;5.50;87.30;;;;;;5034472;28;20068;-69
2021/04/07 08:35:06;;;;;;;5.97;1.80;;;5.40;87.70;;;;;;5031695;28;20080;-69
2021/04/07 08:37:32;;;;;;;7.50;1.48;;;5.20;87.80;;;;;;5032599;28;20030;-70
2021/04/07 08:40:16;;;;;;;8.02;1.60;;;5.20;87.70;;;;;;5034404;28;20026;-71
2021/04/07 08:42:43;;;;;;;8.98;1.92;;;5.20;88.20;;;;;;5033774;28;20018;-69
2021/04/07 08:45:11;;;;;;;4.40;1.67;;;5.20;88.40;;;;;;5033748;28;20021;-69
2021/04/07 08:47:46;;;;;;;8.40;2.10;;;5.20;88.30;;;;;;5033693;28;20376;-69
2021/04/07 08:50:14;;;;;;;8.35;2.17;;;5.30;88.20;;;;;;5033862;28;20017;-70
2021/04/07 08:52:49;;;;;;;12.55;2.40;;;5.30;88.40;;;;;;5033448;28;20030;-70
2021/04/07 08:55:23;;;;;;;10.50;2.13;;;5.40;88.50;;;;;;5033999;28;20033;-70
2021/04/07 08:58:04;;;;;;;12.60;2.40;;;5.60;88.50;;;;;;5032183;28;20456;-70
2021/04/07 09:00:32;;;;;;;11.40;2.42;;;5.70;88.20;;;;;;5032105;28;20454;-70
2021/04/07 09:03:07;;;;;;;13.90;2.72;;;5.90;88.20;;;;;;5031898;28;20021;-70
2021/04/07 09:05:36;;;;;;;13.20;3.00;;;6.10;88.10;;;;;;5031977;28;20030;-70
2021/04/07 09:08:03;;;;;;;15.57;2.60;;;6.20;87.80;;;;;;5033132;28;20029;-70
2021/04/07 09:10:46;;;;;;;15.15;3.30;;;6.30;87.30;;;;;;5032217;28;20468;-71
2021/04/07 09:13:24;;;;;;;12.23;2.75;;;6.50;87.10;;;;;;5032149;28;20027;-70
2021/04/07 09:16:01;;;;;;;16.58;2.63;;;6.50;86.30;;;;;;5033328;28;20450;-71
2021/04/07 09:18:37;;;;;;;11.88;2.42;;;6.50;86.30;;;;;;5032018;28;20029;-71
2021/04/07 09:21:08;;;;;;;10.55;2.70;;;6.60;86.00;;;;;;5033544;28;20025;-71
2021/04/07 09:23:36;;;;;;;10.52;2.55;;;6.60;86.10;;;;;;5031730;28;20064;-72
2021/04/07 09:26:22;;;;;;;14.23;2.92;;;6.70;85.90;;;;;;5031815;28;20384;-71
2021/04/07 09:28:51;;;;;;;13.70;2.72;;;6.80;85.80;;;;;;5031762;28;20496;-70
2021/04/07 09:31:23;;;;;;;11.70;2.88;;;6.90;85.80;;;;;;5032199;28;20028;-70
2021/04/07 09:33:58;;;;;;;15.50;3.05;;;6.90;85.50;;;;;;5031607;28;20041;-70
2021/04/07 09:36:31;;;;;;;11.95;2.50;;;7.00;84.90;;;;;;5032820;28;20025;-70
2021/04/07 09:39:02;;;;;;;18.33;2.90;;;7.10;85.00;;;;;;5031588;28;20370;-70
2021/04/07 09:41:30;;;;;;;14.38;3.17;;;7.20;85.60;;;;;;5031511;28;20484;-70
2021/04/07 09:43:56;;;;;;;17.58;3.30;;;7.40;84.70;;;;;;5032925;28;20385;-70
2021/04/07 09:46:24;;;;;;;14.60;2.50;;;7.50;83.70;;;;;;5031084;28;20548;-70
2021/04/07 09:49:00;;;;;;;15.82;2.92;;;7.60;82.80;;;;;;5032871;28;20670;-70
2021/04/07 09:51:39;;;;;;;18.52;3.10;;;7.50;82.90;;;;;;5031514;28;20022;-70
2021/04/07 09:54:25;;;;;;;15.82;2.95;;;7.40;82.90;;;;;;5031460;28;20033;-70
2021/04/07 09:57:00;;;;;;;19.52;3.75;;;7.40;82.40;;;;;;5031700;28;20025;-70
2021/04/07 09:59:47;;;;;;;15.60;3.10;;;7.40;81.60;;;;;;5032894;28;20034;-70
2021/04/07 10:02:26;;;;;;;12.45;2.58;;;7.20;82.00;;;;;;5032810;28;20380;-70
2021/04/07 10:04:53;;;;;;;18.15;2.97;;;6.90;82.50;;;;;;5032590;28;20033;-70
2021/04/07 10:07:21;;;;;;;15.63;2.17;;;6.70;82.70;;;;;;5031145;28;20491;-70
2021/04/07 10:09:48;;;;;;;13.73;2.88;;;6.50;83.00;;;;;;5030981;28;20103;-70
2021/04/07 10:12:28;;;;;;;11.93;3.08;;;6.30;83.50;;;;;;5032233;28;20534;-70
2021/04/07 10:14:55;;;;;;;16.23;3.05;;;6.10;84.00;;;;;;5031043;28;20045;-70
2021/04/07 10:17:27;;;;;;;13.10;2.35;;;6.10;84.50;;;;;;5032455;28;20476;-70
2021/04/07 10:19:53;;;;;;;18.95;3.20;;;6.10;84.90;;;;;;5032325;28;20400;-71
2021/04/07 10:22:30;;;;;;;11.13;2.95;;;6.20;85.00;;;;;;5032185;28;20028;-70
2021/04/07 10:24:58;;;;;;;14.50;3.20;;;6.30;85.30;;;;;;5030845;28;20018;-70
2021/04/07 10:27:25;;;;;;;14.05;3.08;;;6.40;85.30;;;;;;5031021;28;20028;-70
2021/04/07 10:30:06;;;;;;;15.85;3.88;;;6.60;85.30;;;;;;5031107;28;20024;-70
2021/04/07 10:32:42;;;;;;;14.70;3.38;;;6.80;84.90;;;;;;5032276;28;20075;-71
2021/04/07 10:35:19;;;;;;;13.00;3.20;;;6.90;83.70;;;;;;5031099;28;20029;-70
2021/04/07 10:38:04;;;;;;;16.05;3.33;;;7.00;83.40;;;;;;5032302;28;20033;-70
2021/04/07 10:40:31;;;;;;;9.57;2.92;;;7.10;81.30;;;;;;5032786;28;20033;-70
2021/04/07 10:42:58;;;;;;;11.73;3.10;;;7.10;81.60;;;;;;5032270;28;20034;-70
2021/04/07 10:45:27;;;;;;;12.27;3.08;;;7.10;80.30;;;;;;5032172;28;20036;-70
2021/04/07 10:48:04;;;;;;;8.77;2.63;;;7.10;79.70;;;;;;5030797;28;20093;-69
2021/04/07 10:50:39;;;;;;;15.30;2.60;;;7.30;79.10;;;;;;5030697;28;20021;-70
2021/04/07 10:53:05;;;;;;;16.13;2.60;;;7.50;77.80;;;;;;5030625;28;20024;-71
2021/04/07 10:55:32;;;;;;;12.15;2.55;;;7.60;77.80;;;;;;5032387;28;20029;-71
2021/04/07 10:57:59;;;;;;;12.88;2.97;;;7.70;78.30;;;;;;5030578;28;20025;-71
2021/04/07 11:00:32;;;;;;;15.50;2.97;;;7.60;78.20;;;;;;5034097;28;20025;-72
2021/04/07 11:02:58;;;;;;;13.25;3.40;;;7.50;79.10;;;;;;5035651;28;20033;-71
2021/04/07 11:05:27;;;;;;;12.93;2.83;;;7.20;78.80;;;;;;5033969;28;20116;-71
2021/04/07 11:08:06;;;;;;;16.88;3.28;;;6.90;79.70;;;;;;5033954;28;20022;-71
2021/04/07 11:10:43;;;;;;;16.52;3.25;;;6.60;79.90;;;;;;5034901;28;20049;-71
2021/04/07 11:13:10;;;;;;;14.88;3.10;;;6.50;80.70;;;;;;5034356;28;20485;-72
2021/04/07 11:15:36;;;;;;;11.95;2.83;;;6.50;81.40;;;;;;5034287;28;20481;-71
2021/04/07 11:18:02;;;;;;;14.25;3.15;;;6.60;81.70;;;;;;5035467;28;20022;-71
2021/04/07 11:20:29;;;;;;;16.38;2.97;;;6.70;81.80;;;;;;5034962;28;20108;-71
2021/04/07 11:22:55;;;;;;;13.68;3.05;;;6.90;82.00;;;;;;5035128;28;20029;-71
2021/04/07 11:25:21;;;;;;;15.02;3.10;;;7.10;81.80;;;;;;5035130;28;20102;-70
2021/04/07 11:27:48;;;;;;;16.58;3.20;;;7.30;81.10;;;;;;5033581;28;20010;-71
2021/04/07 11:30:14;;;;;;;16.25;3.10;;;7.40;80.70;;;;;;5033593;28;20415;-72
2021/04/07 11:32:45;;;;;;;21.48;3.55;;;7.40;80.10;;;;;;5034962;28;20021;-71
2021/04/07 11:40:37;;;;;;;12.07;2.55;;;7.00;79.50;;;;;;5034742;28;20088;-70
2021/04/07 11:43:21;;;;;;;9.27;2.13;;;6.80;79.00;;;;;;5033259;28;20036;-71
2021/04/07 11:45:48;;;;;;;10.00;2.58;;;6.70;79.90;;;;;;5034970;28;20052;-71
2021/04/07 11:48:14;;;;;;;14.13;2.67;;;6.80;79.90;;;;;;5033555;28;20587;-71
2021/04/07 11:50:40;;;;;;;10.43;2.50;;;6.80;78.70;;;;;;5033624;28;20047;-71
2021/04/07 11:53:05;;;;;;;13.60;3.03;;;6.80;78.80;;;;;;5034718;28;20029;-70
2021/04/07 11:55:31;;;;;;;9.80;2.33;;;6.90;78.30;;;;;;5033042;28;20409;-71
2021/04/07 11:57:57;;;;;;;12.45;2.80;;;7.00;78.70;;;;;;5034530;28;20029;-71
2021/04/07 12:00:23;;;;;;;13.93;3.25;;;7.10;78.50;;;;;;5033057;28;20021;-71
2021/04/07 12:02:49;;;;;;;16.58;2.60;;;7.20;78.30;;;;;;5033123;28;20385;-71
2021/04/07 12:05:21;;;;;;;10.48;2.50;;;7.40;77.80;;;;;;5034476;28;20049;-71
2021/04/07 12:07:46;;;;;;;16.63;3.22;;;7.40;77.50;;;;;;5032833;28;20088;-72
2021/04/07 12:10:13;;;;;;;10.75;2.55;;;7.30;76.90;;;;;;5032726;28;20026;-72
2021/04/07 12:12:38;;;;;;;14.70;3.45;;;7.30;76.10;;;;;;5032932;28;20013;-71
2021/04/07 12:15:04;;;;;;;13.55;2.92;;;7.20;76.00;;;;;;5034068;28;20429;-72
2021/04/07 12:17:30;;;;;;;10.18;2.20;;;7.10;75.00;;;;;;5034464;28;20022;-72
2021/04/07 12:19:56;;;;;;;14.75;3.20;;;6.90;74.90;;;;;;5032729;28;20056;-72
2021/04/07 12:22:21;;;;;;;9.68;2.50;;;6.80;74.10;;;;;;5034110;28;20029;-72
2021/04/07 12:24:47;;;;;;;11.65;2.38;;;6.70;72.30;;;;;;5033800;28;20357;-72
2021/04/07 12:27:14;;;;;;;7.88;2.20;;;6.70;73.20;;;;;;5033888;28;20448;-72
2021/04/07 12:29:40;;;;;;;11.50;2.30;;;6.70;73.90;;;;;;5032687;28;20549;-70
2021/04/07 12:32:07;;;;;;;8.30;2.67;;;6.80;74.30;;;;;;5033597;28;20060;-70
2021/04/07 12:34:33;;;;;;;13.18;2.50;;;6.90;72.20;;;;;;5032812;28;20139;-70
2021/04/07 12:37:00;;;;;;;16.60;2.53;;;6.80;72.10;;;;;;5032099;28;20029;-71
2021/04/07 12:39:26;;;;;;;11.45;2.28;;;6.80;71.20;;;;;;5033510;28;20036;-71
2021/04/07 12:41:56;;;;;;;9.65;2.00;;;6.70;71.70;;;;;;5033748;28;20029;-70
2021/04/07 12:44:22;;;;;;;11.15;2.00;;;6.80;72.20;;;;;;5032248;28;20369;-70
2021/04/07 12:46:48;;;;;;;11.05;2.30;;;6.90;71.50;;;;;;5032007;28;20029;-70
2021/04/07 12:49:14;;;;;;;9.60;2.17;;;6.90;72.00;;;;;;5033640;28;20029;-71
2021/04/07 12:51:40;;;;;;;5.05;1.63;;;7.00;71.70;;;;;;5033450;28;20029;-71
2021/04/07 12:54:08;;;;;;;6.88;1.70;;;7.20;72.00;;;;;;5031975;28;20017;-71
2021/04/07 12:56:34;;;;;;;8.50;2.08;;;7.30;71.80;;;;;;5031776;28;20026;-71
2021/04/07 12:58:59;;;;;;;13.60;2.40;;;7.40;70.50;;;;;;5031812;28;20048;-71
2021/04/07 13:01:25;;;;;;;12.10;2.33;;;7.50;70.40;;;;;;5033106;28;20036;-71
2021/04/07 13:03:51;;;;;;;10.05;2.00;;;7.60;70.20;;;;;;5031661;28;20030;-71
2021/04/07 13:06:16;;;;;;;10.57;2.20;;;7.70;67.50;;;;;;5031560;28;20032;-71
2021/04/07 13:08:43;;;;;;;8.95;1.95;;;7.60;67.30;;;;;;5032705;28;20129;-71